Farmington, West Virginia
Current Conditions -  °F | °C
As of 1:32 PM on Sunday 25 Jan 2015 (Local Time) from KCKB Reporting Station
Overcast Overcast  
Wind Chill: 38°   Ceiling: 2500
Heat Index: 42°   Visibility: 10mi
Dew Point: 33°   Wind: 7mph
Humidity: 70%   Direction: 220°SW
Pressure: 29.77"   Gusts: NA
Location:  39.51°N, 80.25°W
Report Text: KCKB 251832Z 22006KT 10SM BKN025 OVC046 06/01 A2977 RMK AO2 T00560006
Loading
Personal Weather Stations






























Interactive Weather Map New forecast layout! Learn more

10-Day Weather Forecast

Advertisements
Track Severe Weather on mobile